Time;durP1;ratioP1;P1;durP2;ratioP2;P2;SDS_P1;SDS_P2;PMS_P1;PMS_P2;Temp;Humidity;BMP_temperature;BMP_pressure;BME280_temperature;BME280_humidity;BME280_pressure;Samples;Min_cycle;Max_cycle;Signal;HPM_P1;HPM_P2
2022/05/25 00:01:00;;;;;;;1.02;0.47;;;20.60;60.30;;;;;;4446376;32;20159;-70
2022/05/25 00:03:28;;;;;;;0.63;0.30;;;20.60;60.30;;;;;;4446891;32;20098;-70
2022/05/25 00:05:54;;;;;;;1.13;0.40;;;20.50;60.20;;;;;;4445979;32;20121;-70
2022/05/25 00:08:21;;;;;;;0.75;0.52;;;20.50;60.20;;;;;;4446475;32;20168;-70
2022/05/25 00:10:46;;;;;;;0.98;0.40;;;20.50;60.20;;;;;;4446180;32;20085;-69
2022/05/25 00:13:12;;;;;;;0.77;0.38;;;20.50;60.20;;;;;;4446135;32;20078;-70
2022/05/25 00:15:38;;;;;;;0.80;0.60;;;20.50;60.20;;;;;;4446051;32;20209;-70
2022/05/25 00:18:04;;;;;;;0.93;0.50;;;20.50;60.20;;;;;;4445942;32;20219;-70
2022/05/25 00:20:30;;;;;;;1.35;0.52;;;20.50;60.20;;;;;;4445832;32;20058;-70
2022/05/25 00:22:57;;;;;;;1.58;0.40;;;20.50;60.20;;;;;;4445682;32;20090;-70
2022/05/25 00:25:24;;;;;;;1.67;0.50;;;20.50;60.20;;;;;;4444667;32;20109;-70
2022/05/25 00:27:50;;;;;;;2.55;0.50;;;20.50;60.20;;;;;;4445700;32;20649;-70
2022/05/25 00:30:17;;;;;;;1.58;0.40;;;20.50;60.20;;;;;;4446064;32;20082;-70
2022/05/25 00:32:44;;;;;;;0.95;0.52;;;20.50;60.20;;;;;;4445737;32;20129;-70
2022/05/25 00:35:14;;;;;;;1.25;0.52;;;20.50;60.20;;;;;;4445749;32;20419;-70
2022/05/25 00:37:40;;;;;;;0.68;0.57;;;20.50;60.20;;;;;;4446043;32;20499;-70
2022/05/25 00:40:09;;;;;;;1.45;0.68;;;20.50;60.20;;;;;;4445488;32;20184;-70
2022/05/25 00:42:36;;;;;;;1.27;0.60;;;20.50;60.20;;;;;;4445952;32;20086;-70
2022/05/25 00:45:03;;;;;;;0.95;0.45;;;20.50;60.10;;;;;;4445685;32;20070;-70
2022/05/25 00:47:30;;;;;;;0.80;0.40;;;20.50;60.20;;;;;;4445558;32;20085;-70
2022/05/25 00:49:57;;;;;;;1.05;0.50;;;20.40;60.10;;;;;;4445592;32;20089;-70
2022/05/25 00:52:22;;;;;;;0.35;0.35;;;20.40;60.10;;;;;;4445413;32;20062;-70
2022/05/25 00:55:00;;;;;;;1.10;0.38;;;20.40;60.10;;;;;;4445703;32;20216;-70
2022/05/25 00:57:39;;;;;;;0.50;0.50;;;20.40;60.10;;;;;;4445619;32;20082;-70
2022/05/25 01:00:07;;;;;;;0.50;0.35;;;20.40;60.10;;;;;;4445593;32;20412;-70
2022/05/25 01:02:35;;;;;;;1.05;0.40;;;20.40;60.10;;;;;;4445175;32;20110;-70
2022/05/25 01:05:03;;;;;;;1.05;0.40;;;20.40;60.10;;;;;;4445607;32;20122;-70
2022/05/25 01:08:00;;;;;;;1.33;0.50;;;20.40;60.10;;;;;;4445303;32;20411;-70
2022/05/25 01:10:42;;;;;;;0.50;0.30;;;20.40;60.00;;;;;;4445175;32;20070;-70
2022/05/25 01:13:13;;;;;;;0.90;0.43;;;20.40;60.00;;;;;;4445354;32;20474;-71
2022/05/25 01:15:57;;;;;;;0.60;0.40;;;20.40;60.00;;;;;;4445234;32;20129;-70
2022/05/25 01:18:45;;;;;;;0.80;0.40;;;20.40;60.00;;;;;;4445148;32;20124;-70
2022/05/25 01:21:41;;;;;;;0.80;0.40;;;20.30;60.00;;;;;;4445547;32;20078;-70
2022/05/25 01:24:25;;;;;;;1.17;0.52;;;20.40;60.00;;;;;;4445506;32;20058;-70
2022/05/25 01:27:06;;;;;;;1.35;0.47;;;20.30;59.90;;;;;;4456917;32;20062;-70
2022/05/25 01:29:43;;;;;;;0.63;0.30;;;20.30;59.90;;;;;;4445258;32;20077;-70
2022/05/25 01:32:12;;;;;;;1.20;0.40;;;20.30;60.00;;;;;;4456767;32;20096;-70
2022/05/25 01:34:45;;;;;;;1.10;0.40;;;20.30;60.00;;;;;;4445042;32;20519;-70
2022/05/25 01:37:39;;;;;;;0.73;0.30;;;20.30;59.90;;;;;;4444907;32;20172;-70
2022/05/25 01:40:31;;;;;;;0.90;0.40;;;20.30;60.00;;;;;;4440836;32;20518;-70
2022/05/25 01:43:23;;;;;;;1.20;0.43;;;20.30;60.00;;;;;;4444850;32;20097;-70
2022/05/25 01:46:03;;;;;;;1.42;0.40;;;20.30;60.00;;;;;;4440936;32;20086;-71
2022/05/25 01:48:33;;;;;;;0.85;0.43;;;20.30;60.10;;;;;;4444899;32;20207;-70
2022/05/25 01:51:11;;;;;;;1.02;0.40;;;20.30;60.10;;;;;;4445040;32;20431;-70
2022/05/25 01:53:42;;;;;;;0.98;0.50;;;20.30;60.10;;;;;;4445293;32;20113;-71
2022/05/25 01:56:11;;;;;;;0.93;0.50;;;20.30;60.10;;;;;;4444994;32;20267;-70
2022/05/25 01:58:40;;;;;;;3.40;0.35;;;20.30;60.10;;;;;;4444986;32;20078;-71
2022/05/25 02:01:08;;;;;;;1.27;0.40;;;20.30;60.00;;;;;;4444891;32;20104;-70
2022/05/25 02:06:30;;;;;;;2.28;0.50;;;20.30;60.10;;;;;;4445535;32;20412;-70
2022/05/25 02:09:20;;;;;;;0.80;0.25;;;20.30;60.10;;;;;;4444721;32;20220;-70
2022/05/25 02:11:50;;;;;;;1.23;0.40;;;20.30;60.10;;;;;;4445223;32;20215;-70
2022/05/25 02:14:42;;;;;;;0.47;0.38;;;20.20;60.00;;;;;;4444917;32;20070;-70
2022/05/25 02:17:36;;;;;;;0.95;0.40;;;20.20;60.00;;;;;;4445259;32;20502;-70
2022/05/25 02:20:37;;;;;;;0.98;0.40;;;20.20;60.00;;;;;;4444863;32;20224;-70
2022/05/25 02:23:18;;;;;;;0.47;0.32;;;20.20;60.00;;;;;;4447117;32;20418;-70
2022/05/25 02:25:50;;;;;;;0.82;0.52;;;20.20;60.00;;;;;;4448113;32;20128;-70
2022/05/25 02:28:23;;;;;;;1.00;0.40;;;20.20;60.00;;;;;;4448075;32;20203;-70
2022/05/25 02:30:53;;;;;;;0.93;0.40;;;20.20;60.00;;;;;;4447789;32;20074;-71
2022/05/25 02:33:25;;;;;;;0.50;0.20;;;20.20;60.00;;;;;;4447684;32;20638;-70
2022/05/25 02:35:52;;;;;;;0.43;0.40;;;20.20;60.00;;;;;;4447643;32;20067;-71
2022/05/25 02:38:18;;;;;;;0.30;0.20;;;20.20;60.00;;;;;;4447544;32;20084;-70
2022/05/25 02:40:44;;;;;;;1.75;0.40;;;20.20;60.00;;;;;;4447234;32;20128;-70
2022/05/25 02:43:10;;;;;;;1.33;0.40;;;20.20;60.00;;;;;;4447496;32;20430;-70
2022/05/25 02:45:37;;;;;;;0.68;0.30;;;20.10;60.00;;;;;;4447155;32;20183;-70
2022/05/25 02:48:04;;;;;;;0.85;0.50;;;20.10;59.90;;;;;;4447620;32;20123;-70
2022/05/25 02:50:30;;;;;;;0.90;0.30;;;20.10;60.00;;;;;;4447359;32;20404;-70
2022/05/25 02:52:57;;;;;;;2.03;0.30;;;20.10;59.90;;;;;;4447218;32;20074;-70
2022/05/25 02:55:23;;;;;;;0.40;0.20;;;20.10;59.90;;;;;;4459192;32;20110;-70
2022/05/25 02:57:50;;;;;;;0.52;0.30;;;20.10;60.00;;;;;;4447291;32;20097;-71
2022/05/25 03:00:16;;;;;;;1.35;0.40;;;20.10;59.90;;;;;;4447509;32;20578;-70
2022/05/25 03:02:42;;;;;;;0.52;0.43;;;20.10;59.90;;;;;;4447164;32;20078;-70
2022/05/25 03:05:10;;;;;;;0.68;0.25;;;20.10;59.90;;;;;;4447242;32;20080;-70
2022/05/25 03:07:36;;;;;;;1.20;0.30;;;20.10;59.90;;;;;;4446931;32;20070;-70
2022/05/25 03:10:06;;;;;;;0.45;0.20;;;20.10;59.90;;;;;;4446031;32;20122;-70
2022/05/25 03:12:31;;;;;;;1.23;0.47;;;20.10;60.70;;;;;;4447072;32;20134;-70
2022/05/25 03:14:58;;;;;;;0.50;0.30;;;20.00;59.80;;;;;;4447259;32;20081;-70
2022/05/25 03:17:23;;;;;;;0.85;0.40;;;20.00;59.80;;;;;;4446782;32;20110;-70
2022/05/25 03:19:52;;;;;;;0.60;0.30;;;20.00;59.80;;;;;;4458754;32;20184;-70
2022/05/25 03:22:19;;;;;;;0.50;0.30;;;20.00;59.70;;;;;;4446895;32;20223;-70
2022/05/25 03:24:45;;;;;;;0.90;0.40;;;20.00;59.70;;;;;;4446879;32;20144;-70
2022/05/25 03:27:12;;;;;;;0.75;0.20;;;20.00;59.80;;;;;;4447108;32;20096;-70
2022/05/25 03:29:37;;;;;;;0.75;0.32;;;20.00;59.80;;;;;;4446784;32;20140;-70
2022/05/25 03:32:04;;;;;;;0.30;0.28;;;20.00;59.80;;;;;;4446717;32;20474;-70
2022/05/25 03:34:29;;;;;;;2.30;0.38;;;20.00;59.80;;;;;;4446214;32;20411;-70
2022/05/25 03:36:55;;;;;;;0.38;0.25;;;20.00;59.80;;;;;;4446960;32;20070;-70
2022/05/25 03:39:22;;;;;;;0.45;0.30;;;20.00;59.80;;;;;;4446390;32;20063;-70
2022/05/25 03:41:54;;;;;;;0.75;0.30;;;20.00;59.80;;;;;;4446683;32;20125;-69
2022/05/25 03:44:21;;;;;;;0.63;0.30;;;20.00;59.80;;;;;;4446744;32;20581;-70
2022/05/25 03:46:48;;;;;;;0.52;0.30;;;20.00;59.70;;;;;;4446660;32;20090;-70
2022/05/25 03:49:13;;;;;;;0.50;0.25;;;20.00;59.80;;;;;;4446175;32;20259;-70
2022/05/25 03:51:39;;;;;;;0.73;0.30;;;20.00;59.70;;;;;;4458218;32;20070;-70
2022/05/25 03:54:05;;;;;;;0.77;0.25;;;20.00;59.80;;;;;;4446829;32;20213;-70
2022/05/25 03:56:32;;;;;;;0.32;0.30;;;19.90;59.70;;;;;;4446133;32;20455;-70
2022/05/25 03:58:59;;;;;;;1.00;0.22;;;19.90;59.70;;;;;;4446416;32;20495;-70
2022/05/25 04:01:25;;;;;;;0.73;0.30;;;19.90;59.70;;;;;;4446324;32;20085;-70
2022/05/25 04:03:51;;;;;;;0.52;0.20;;;19.90;59.70;;;;;;4446010;32;20062;-71
2022/05/25 04:06:17;;;;;;;0.38;0.20;;;19.90;59.70;;;;;;4446508;32;20062;-70
2022/05/25 04:08:42;;;;;;;1.45;0.32;;;19.90;59.70;;;;;;4446347;32;20075;-70
2022/05/25 04:11:08;;;;;;;0.73;0.40;;;19.90;59.70;;;;;;4446494;32;20111;-70
2022/05/25 04:13:34;;;;;;;0.90;0.20;;;19.90;59.70;;;;;;4446229;32;20126;-70
2022/05/25 04:16:00;;;;;;;0.45;0.30;;;19.90;59.70;;;;;;4446072;32;20070;-70
2022/05/25 04:18:26;;;;;;;0.52;0.40;;;19.90;59.70;;;;;;4445724;32;20488;-70
2022/05/25 04:20:52;;;;;;;0.60;0.28;;;19.90;59.70;;;;;;4446227;32;20074;-71
2022/05/25 04:23:20;;;;;;;0.50;0.30;;;19.90;59.70;;;;;;4445991;32;20483;-70
2022/05/25 04:25:46;;;;;;;1.70;0.40;;;19.90;59.70;;;;;;4446220;32;20100;-70
2022/05/25 04:28:13;;;;;;;0.45;0.30;;;19.90;59.70;;;;;;4444811;32;20101;-70
2022/05/25 04:30:39;;;;;;;0.30;0.20;;;19.80;59.60;;;;;;4445665;32;20097;-70
2022/05/25 04:33:05;;;;;;;0.50;0.30;;;19.90;59.70;;;;;;4445641;32;20074;-70
2022/05/25 04:35:30;;;;;;;0.52;0.30;;;19.80;59.60;;;;;;4445843;32;20069;-70
2022/05/25 04:37:56;;;;;;;0.93;0.30;;;19.80;59.60;;;;;;4445526;32;20066;-70
2022/05/25 04:40:33;;;;;;;0.45;0.20;;;19.90;59.70;;;;;;4446022;32;20499;-70
2022/05/25 04:43:02;;;;;;;0.30;0.20;;;19.90;59.60;;;;;;4445755;32;20066;-70
2022/05/25 04:45:28;;;;;;;0.40;0.25;;;19.90;59.60;;;;;;4445192;32;20081;-70
2022/05/25 04:47:56;;;;;;;0.50;0.20;;;19.90;59.60;;;;;;4445274;32;20138;-70
2022/05/25 04:50:24;;;;;;;0.98;0.30;;;19.80;59.60;;;;;;4445654;32;20088;-70
2022/05/25 04:52:50;;;;;;;0.30;0.30;;;19.80;59.60;;;;;;4445633;32;20074;-70
2022/05/25 04:58:03;;;;;;;0.38;0.30;;;19.80;59.50;;;;;;4445909;32;20065;-70
2022/05/25 05:00:30;;;;;;;0.50;0.40;;;19.80;59.50;;;;;;4444203;32;20518;-70
2022/05/25 05:02:56;;;;;;;0.70;0.20;;;19.80;59.50;;;;;;4445652;32;20074;-70
2022/05/25 05:05:22;;;;;;;0.88;0.30;;;19.80;59.50;;;;;;4457302;32;20081;-70
2022/05/25 05:07:48;;;;;;;0.60;0.20;;;19.80;59.50;;;;;;4445672;32;20271;-70
2022/05/25 05:10:14;;;;;;;0.25;0.13;;;19.80;59.50;;;;;;4431506;32;20090;-70
2022/05/25 05:12:40;;;;;;;0.98;0.40;;;19.80;59.50;;;;;;4445399;32;20168;-70
2022/05/25 05:15:07;;;;;;;0.30;0.20;;;19.80;59.40;;;;;;4457122;32;20259;-70
2022/05/25 05:17:33;;;;;;;0.32;0.20;;;19.80;59.50;;;;;;4445104;32;20066;-70
2022/05/25 05:19:59;;;;;;;0.50;0.30;;;19.80;59.40;;;;;;4445214;32;20094;-70
2022/05/25 05:22:25;;;;;;;0.40;0.30;;;19.80;59.50;;;;;;4445269;32;20132;-70
2022/05/25 05:24:50;;;;;;;0.65;0.30;;;19.80;59.40;;;;;;4456838;32;20085;-70
2022/05/25 05:27:16;;;;;;;0.50;0.20;;;19.90;59.50;;;;;;4444946;32;20152;-70
2022/05/25 05:29:42;;;;;;;0.10;0.10;;;19.90;59.50;;;;;;4444962;32;20074;-70
2022/05/25 05:32:10;;;;;;;0.30;0.30;;;19.80;59.40;;;;;;4444877;32;20093;-70
2022/05/25 05:34:37;;;;;;;0.20;0.20;;;19.80;59.40;;;;;;4445138;32;20097;-70
2022/05/25 05:37:14;;;;;;;0.88;0.45;;;19.80;59.40;;;;;;4444867;32;20078;-70
2022/05/25 05:39:44;;;;;;;1.50;0.30;;;19.90;59.50;;;;;;4445435;32;20058;-70
2022/05/25 05:42:16;;;;;;;2.08;0.30;;;19.90;59.40;;;;;;4444836;32;20511;-70
2022/05/25 05:44:52;;;;;;;0.45;0.28;;;19.90;59.40;;;;;;4445493;32;20609;-70
2022/05/25 05:47:30;;;;;;;0.40;0.20;;;19.80;59.30;;;;;;4444903;32;20078;-70
2022/05/25 05:49:56;;;;;;;0.30;0.20;;;19.90;59.40;;;;;;4445338;32;20097;-70
2022/05/25 05:52:22;;;;;;;0.10;0.10;;;19.90;59.40;;;;;;4444849;32;20494;-70
2022/05/25 05:54:48;;;;;;;0.52;0.30;;;19.90;59.40;;;;;;4443593;32;20137;-70
2022/05/25 05:57:14;;;;;;;0.90;0.10;;;19.90;60.30;;;;;;4447673;32;20112;-70
2022/05/25 05:59:40;;;;;;;0.40;0.40;;;19.90;59.40;;;;;;4448100;32;20199;-70
2022/05/25 06:02:07;;;;;;;0.55;0.40;;;19.90;59.40;;;;;;4447947;32;20085;-70
2022/05/25 06:04:33;;;;;;;0.40;0.30;;;19.90;59.40;;;;;;4448336;32;20077;-70
2022/05/25 06:06:59;;;;;;;0.38;0.28;;;19.90;59.40;;;;;;4448014;32;20167;-70
2022/05/25 06:09:25;;;;;;;0.60;0.20;;;19.90;59.40;;;;;;4447990;32;20082;-69
2022/05/25 06:11:51;;;;;;;0.57;0.40;;;19.90;59.40;;;;;;4447940;32;20070;-69
2022/05/25 06:14:17;;;;;;;0.35;0.30;;;20.00;59.40;;;;;;4447846;32;20122;-69
2022/05/25 06:19:29;;;;;;;0.65;0.40;;;20.00;59.30;;;;;;4448098;32;20089;-69
2022/05/25 06:22:01;;;;;;;0.63;0.25;;;20.00;59.30;;;;;;4448028;32;20203;-69
2022/05/25 06:24:29;;;;;;;0.40;0.28;;;20.00;59.30;;;;;;4448026;32;20089;-70
2022/05/25 06:26:55;;;;;;;0.40;0.20;;;20.00;59.30;;;;;;4447742;32;20112;-70
2022/05/25 06:29:21;;;;;;;0.43;0.30;;;20.00;59.30;;;;;;4447951;32;20172;-69
2022/05/25 06:31:50;;;;;;;1.02;0.30;;;20.00;59.30;;;;;;4447950;32;20184;-69
2022/05/25 06:34:16;;;;;;;1.13;0.40;;;20.10;59.30;;;;;;4459181;32;20089;-69
2022/05/25 06:36:43;;;;;;;0.93;0.40;;;20.10;59.40;;;;;;4447532;32;20098;-69
2022/05/25 06:39:09;;;;;;;0.25;0.20;;;20.10;59.30;;;;;;4447540;32;20084;-69
2022/05/25 06:41:35;;;;;;;0.40;0.30;;;20.10;59.30;;;;;;4447557;32;20114;-69
2022/05/25 06:44:01;;;;;;;0.20;0.20;;;20.10;59.20;;;;;;4447720;32;20415;-68
2022/05/25 06:46:27;;;;;;;1.52;0.20;;;20.20;59.30;;;;;;4447430;32;20092;-67
2022/05/25 06:48:57;;;;;;;1.35;0.40;;;20.20;59.40;;;;;;4447038;32;20136;-67
2022/05/25 06:51:29;;;;;;;0.82;0.30;;;20.30;59.50;;;;;;4447032;32;20073;-67
2022/05/25 06:53:56;;;;;;;5.32;0.52;;;20.30;59.50;;;;;;4447344;32;20097;-67
2022/05/25 06:56:24;;;;;;;0.45;0.38;;;20.40;59.50;;;;;;4447281;32;20070;-66
2022/05/25 06:58:55;;;;;;;0.98;0.57;;;20.40;59.40;;;;;;4447255;32;20074;-67
2022/05/25 07:01:23;;;;;;;1.45;0.70;;;20.50;59.50;;;;;;4459011;32;20070;-68
2022/05/25 07:03:52;;;;;;;1.40;0.68;;;20.50;59.50;;;;;;4446869;32;20081;-68
2022/05/25 07:06:19;;;;;;;4.00;0.68;;;20.60;59.60;;;;;;4447094;32;20078;-68
2022/05/25 07:08:45;;;;;;;2.42;0.65;;;20.60;59.50;;;;;;4446273;32;20113;-68
2022/05/25 07:11:12;;;;;;;1.33;0.63;;;20.60;60.40;;;;;;4447059;32;20082;-68
2022/05/25 07:13:39;;;;;;;2.53;0.70;;;20.60;59.60;;;;;;4446746;32;20216;-68
2022/05/25 07:16:08;;;;;;;1.23;0.50;;;20.70;59.60;;;;;;4446899;32;20136;-68
2022/05/25 07:18:35;;;;;;;1.58;0.70;;;20.80;59.50;;;;;;4447077;32;20078;-68
2022/05/25 07:21:07;;;;;;;4.30;0.77;;;20.80;59.60;;;;;;4445578;32;20103;-68
2022/05/25 07:23:37;;;;;;;1.55;0.50;;;20.80;59.60;;;;;;4447004;32;20086;-69
2022/05/25 07:26:04;;;;;;;1.88;0.68;;;20.80;59.50;;;;;;4446834;32;20244;-68
2022/05/25 07:28:29;;;;;;;1.40;0.60;;;20.80;59.40;;;;;;4446920;32;20081;-67
2022/05/25 07:31:02;;;;;;;3.28;0.85;;;20.90;59.40;;;;;;4446714;32;20079;-67
2022/05/25 07:33:29;;;;;;;2.47;0.65;;;20.90;59.40;;;;;;4446831;32;20066;-67
2022/05/25 07:35:55;;;;;;;1.10;0.50;;;20.90;59.30;;;;;;4446918;32;20113;-67
2022/05/25 07:38:21;;;;;;;1.48;0.82;;;20.90;59.20;;;;;;4446734;32;20076;-67
2022/05/25 07:40:48;;;;;;;4.15;0.73;;;21.00;59.20;;;;;;4446851;32;20164;-67
2022/05/25 07:43:18;;;;;;;2.33;0.57;;;21.00;59.10;;;;;;4445701;32;20097;-68
2022/05/25 07:45:45;;;;;;;1.73;0.60;;;21.10;59.10;;;;;;4446338;32;20074;-67
2022/05/25 07:48:12;;;;;;;3.22;0.70;;;21.10;59.10;;;;;;4446214;32;20507;-67
2022/05/25 07:50:38;;;;;;;1.95;0.68;;;21.10;59.00;;;;;;4446308;32;20070;-68
2022/05/25 07:53:55;;;;;;;1.60;0.70;;;21.20;59.00;;;;;;4446288;32;20089;-68
2022/05/25 07:55:52;;;;;;;3.47;0.82;;;21.20;58.90;;;;;;4446098;32;20089;-67
2022/05/25 07:58:18;;;;;;;2.10;0.70;;;21.20;58.70;;;;;;4446460;32;20097;-67
2022/05/25 08:00:43;;;;;;;1.95;0.70;;;21.30;58.60;;;;;;4446421;32;20062;-67
2022/05/25 08:05:59;;;;;;;1.38;0.50;;;21.30;58.50;;;;;;4446380;32;20121;-66
2022/05/25 08:08:25;;;;;;;3.22;0.80;;;21.30;58.30;;;;;;4458096;32;20267;-67
2022/05/25 08:10:57;;;;;;;2.30;0.52;;;21.30;58.20;;;;;;4446347;32;20136;-66
2022/05/25 08:13:23;;;;;;;1.83;0.50;;;21.30;58.20;;;;;;4446468;32;20486;-68
2022/05/25 08:15:49;;;;;;;1.58;0.50;;;21.30;58.10;;;;;;4446079;32;20156;-66
2022/05/25 08:18:18;;;;;;;2.50;0.60;;;21.40;58.10;;;;;;4445722;32;20128;-66
2022/05/25 08:20:44;;;;;;;2.28;0.63;;;21.40;58.10;;;;;;4445335;32;20204;-67
2022/05/25 08:23:13;;;;;;;1.90;0.50;;;21.30;58.00;;;;;;4446019;32;20248;-67
2022/05/25 08:25:40;;;;;;;2.58;0.90;;;21.40;58.10;;;;;;4445914;32;20096;-66
2022/05/25 08:28:06;;;;;;;1.80;0.50;;;21.30;58.00;;;;;;4445883;32;20474;-66
2022/05/25 08:30:34;;;;;;;2.50;0.60;;;21.40;57.90;;;;;;4446119;32;20082;-66
2022/05/25 08:33:01;;;;;;;2.17;0.68;;;21.40;57.80;;;;;;4445706;32;20439;-69
2022/05/25 08:35:27;;;;;;;1.63;0.68;;;21.40;57.70;;;;;;4445450;32;20089;-66
2022/05/25 08:39:54;;;;;;;2.03;0.60;;;21.40;57.40;;;;;;4577384;31;20152;-62
2022/05/25 08:42:24;;;;;;;2.08;0.60;;;21.50;57.40;;;;;;4560385;31;20230;-62
2022/05/25 08:44:53;;;;;;;3.50;0.70;;;21.40;57.20;;;;;;4560151;31;20135;-62
2022/05/25 08:47:19;;;;;;;2.65;0.45;;;21.40;57.10;;;;;;4561078;31;20131;-62
2022/05/25 08:49:47;;;;;;;2.53;0.73;;;21.40;57.10;;;;;;4559315;31;20128;-62
2022/05/25 08:52:32;;;;;;;1.55;0.50;;;21.40;57.00;;;;;;4560986;31;20143;-62
2022/05/25 08:55:01;;;;;;;5.10;0.75;;;21.40;56.90;;;;;;4545125;31;20211;-62
2022/05/25 08:57:32;;;;;;;6.35;0.70;;;21.50;57.00;;;;;;4560338;31;20134;-62
2022/05/25 09:00:12;;;;;;;2.47;0.63;;;21.50;57.00;;;;;;4549114;31;20139;-62
2022/05/25 09:03:07;;;;;;;3.63;0.60;;;21.40;57.00;;;;;;4528152;31;20253;-62
2022/05/25 09:05:36;;;;;;;4.82;0.60;;;21.40;57.00;;;;;;4546399;31;20150;-62
2022/05/25 09:08:21;;;;;;;1.40;0.63;;;21.40;57.10;;;;;;4543568;31;20309;-61
2022/05/25 09:11:09;;;;;;;1.88;0.65;;;21.40;57.00;;;;;;4542675;31;20154;-61
2022/05/25 09:13:49;;;;;;;2.75;0.73;;;21.40;57.10;;;;;;4531670;31;20146;-61
2022/05/25 09:16:16;;;;;;;1.67;0.60;;;21.40;57.10;;;;;;4542793;31;20307;-62
2022/05/25 09:19:05;;;;;;;3.03;0.65;;;21.40;57.10;;;;;;4543821;31;20640;-62
2022/05/25 09:21:36;;;;;;;3.30;0.95;;;21.30;57.10;;;;;;4534081;31;20543;-62
2022/05/25 09:24:09;;;;;;;2.45;0.75;;;21.30;57.10;;;;;;4542376;31;20135;-62
2022/05/25 09:26:35;;;;;;;2.73;0.90;;;21.30;57.00;;;;;;4546095;31;20530;-63
2022/05/25 09:29:05;;;;;;;5.35;0.77;;;21.30;57.00;;;;;;4542206;31;20178;-62
2022/05/25 09:31:53;;;;;;;1.40;0.50;;;21.30;57.00;;;;;;4545877;31;20146;-62
2022/05/25 09:34:39;;;;;;;2.17;0.57;;;21.20;57.80;;;;;;4543968;31;20076;-63
2022/05/25 09:37:15;;;;;;;2.72;0.85;;;21.20;56.70;;;;;;4542351;31;20265;-62
2022/05/25 09:39:44;;;;;;;2.85;0.80;;;21.20;56.70;;;;;;4543843;31;20282;-62
2022/05/25 09:42:17;;;;;;;5.15;0.80;;;21.20;56.70;;;;;;4542915;31;20124;-62
2022/05/25 09:44:49;;;;;;;2.72;0.80;;;21.20;56.60;;;;;;4543417;31;20131;-63
2022/05/25 09:47:36;;;;;;;1.88;0.85;;;21.20;56.60;;;;;;4544009;31;20098;-61
2022/05/25 09:50:02;;;;;;;3.45;0.95;;;21.20;56.60;;;;;;4537020;31;20132;-62
2022/05/25 09:52:42;;;;;;;2.72;0.90;;;21.20;56.60;;;;;;4533076;31;20135;-62
2022/05/25 09:55:15;;;;;;;1.77;0.70;;;21.20;56.40;;;;;;4532450;31;20148;-62
2022/05/25 09:57:58;;;;;;;3.78;0.82;;;21.20;56.50;;;;;;4532040;31;20138;-62
2022/05/25 10:00:58;;;;;;;1.35;0.68;;;21.20;56.50;;;;;;4532944;31;20178;-62
2022/05/25 10:03:41;;;;;;;4.45;0.80;;;21.20;56.50;;;;;;4498369;31;20124;-62
2022/05/25 10:06:27;;;;;;;1.90;0.80;;;21.20;56.60;;;;;;4534279;31;20127;-62
2022/05/25 10:09:24;;;;;;;3.40;0.90;;;21.20;56.70;;;;;;4532574;31;20132;-62
2022/05/25 10:12:31;;;;;;;1.25;0.63;;;21.20;56.70;;;;;;4533221;31;20204;-62
2022/05/25 10:15:03;;;;;;;3.97;0.88;;;21.10;56.60;;;;;;4531574;31;20228;-62
2022/05/25 10:17:52;;;;;;;2.45;0.52;;;21.10;56.60;;;;;;4532833;31;20212;-62
2022/05/25 10:20:25;;;;;;;3.38;0.90;;;21.10;56.60;;;;;;4530313;31;20158;-62
2022/05/25 10:23:19;;;;;;;3.17;0.93;;;21.10;56.40;;;;;;4532290;31;20928;-62
2022/05/25 10:25:49;;;;;;;2.60;0.98;;;21.10;56.40;;;;;;4532368;31;20068;-62
2022/05/25 10:28:29;;;;;;;2.58;0.80;;;21.10;56.30;;;;;;4530714;31;20132;-62
2022/05/25 10:36:59;;;;;;;3.75;1.10;;;21.10;56.20;;;;;;4514973;31;20128;-62
2022/05/25 10:39:45;;;;;;;1.13;0.60;;;21.10;56.10;;;;;;4516340;31;20144;-62
2022/05/25 10:42:26;;;;;;;5.65;0.95;;;21.10;56.10;;;;;;4515442;31;20148;-63
2022/05/25 10:45:10;;;;;;;3.35;0.88;;;21.10;56.00;;;;;;4529245;31;21018;-62
2022/05/25 10:48:08;;;;;;;2.72;0.80;;;21.10;56.20;;;;;;4531858;31;20132;-62
2022/05/25 10:50:39;;;;;;;2.65;0.80;;;21.10;56.20;;;;;;4459247;31;20126;-62
2022/05/25 10:53:35;;;;;;;2.10;0.90;;;21.00;56.10;;;;;;4531438;31;20248;-62
2022/05/25 10:56:13;;;;;;;2.97;0.93;;;21.00;56.00;;;;;;4523731;31;20139;-62
2022/05/25 10:59:04;;;;;;;1.73;0.70;;;21.00;56.10;;;;;;4530203;31;20120;-62
2022/05/25 11:01:48;;;;;;;3.67;0.73;;;21.00;56.10;;;;;;4516301;31;20278;-62
2022/05/25 11:05:01;;;;;;;3.35;0.90;;;21.00;55.90;;;;;;4531313;31;20084;-62
2022/05/25 11:07:46;;;;;;;5.25;0.82;;;20.90;55.90;;;;;;4522933;31;20191;-62
2022/05/25 11:10:18;;;;;;;5.00;0.90;;;20.90;55.90;;;;;;4529139;31;20194;-62
2022/05/25 11:13:14;;;;;;;5.70;0.80;;;20.90;56.00;;;;;;4531441;31;20240;-62
2022/05/25 11:16:10;;;;;;;3.25;1.08;;;20.90;56.00;;;;;;4529915;31;20140;-63
2022/05/25 11:18:56;;;;;;;2.30;0.90;;;20.90;56.10;;;;;;4531116;31;20204;-61
2022/05/25 11:21:26;;;;;;;7.20;0.82;;;20.90;56.10;;;;;;4531396;31;20076;-63
2022/05/25 11:24:13;;;;;;;3.80;1.00;;;20.80;56.20;;;;;;4529878;31;20128;-62
2022/05/25 11:27:00;;;;;;;1.23;0.75;;;20.90;56.40;;;;;;4531339;31;20265;-61
2022/05/25 11:29:35;;;;;;;2.17;0.75;;;20.80;56.20;;;;;;4516391;31;20246;-61
2022/05/25 11:32:21;;;;;;;3.35;0.40;;;20.80;56.20;;;;;;4531760;31;20127;-61
2022/05/25 11:35:21;;;;;;;2.20;0.55;;;20.80;56.20;;;;;;4530635;31;20156;-62
2022/05/25 11:38:21;;;;;;;2.95;0.50;;;20.80;56.30;;;;;;4529948;31;20316;-62
2022/05/25 11:41:16;;;;;;;2.60;0.50;;;20.80;56.50;;;;;;4514396;31;20195;-61
2022/05/25 11:43:45;;;;;;;2.67;0.60;;;20.80;56.50;;;;;;4513893;31;20120;-61
2022/05/25 11:46:24;;;;;;;2.83;0.40;;;20.80;56.60;;;;;;4529581;31;20148;-61
2022/05/25 11:49:27;;;;;;;3.50;0.68;;;20.80;56.60;;;;;;4530375;31;20116;-60
2022/05/25 11:52:19;;;;;;;1.13;0.50;;;20.80;56.70;;;;;;4530937;31;20196;-62
2022/05/25 11:55:00;;;;;;;3.10;0.40;;;20.80;56.70;;;;;;4529673;31;20236;-62
2022/05/25 11:57:51;;;;;;;1.10;1.00;;;20.80;56.80;;;;;;4530779;31;20312;-62
2022/05/25 12:00:37;;;;;;;1.42;0.73;;;20.70;56.60;;;;;;4531210;31;20290;-62
2022/05/25 12:03:03;;;;;;;1.75;0.98;;;20.70;56.80;;;;;;4529695;31;20131;-62
2022/05/25 12:05:44;;;;;;;1.60;0.70;;;20.70;56.90;;;;;;4531249;31;20135;-62
2022/05/25 12:08:44;;;;;;;1.67;0.73;;;20.70;56.90;;;;;;4530688;31;20208;-62
2022/05/25 12:11:35;;;;;;;2.97;0.73;;;20.70;57.00;;;;;;4529798;31;20147;-61
2022/05/25 12:14:26;;;;;;;2.92;0.85;;;20.70;57.10;;;;;;4531082;31;20254;-61
2022/05/25 12:16:54;;;;;;;2.78;0.70;;;20.80;57.20;;;;;;4531012;31;20081;-62
2022/05/25 12:19:32;;;;;;;1.70;0.80;;;20.80;57.60;;;;;;4529157;31;20135;-62
2022/05/25 12:22:03;;;;;;;3.08;1.08;;;20.80;57.70;;;;;;4529453;31;20143;-62
2022/05/25 12:24:34;;;;;;;3.67;0.90;;;20.80;57.70;;;;;;4527948;31;20611;-63
2022/05/25 12:27:04;;;;;;;1.98;0.80;;;20.90;57.70;;;;;;4530392;31;20174;-63
2022/05/25 12:29:38;;;;;;;5.38;1.13;;;20.80;57.60;;;;;;4529965;31;20128;-61
2022/05/25 12:32:06;;;;;;;2.65;0.80;;;20.90;57.60;;;;;;4529360;31;20124;-62
2022/05/25 12:34:50;;;;;;;3.05;0.80;;;20.90;57.60;;;;;;4532568;31;20116;-61
2022/05/25 12:37:29;;;;;;;2.13;0.85;;;21.00;57.70;;;;;;4527065;31;20162;-62
2022/05/25 12:39:59;;;;;;;2.70;0.70;;;21.00;57.60;;;;;;4532274;31;20124;-62
2022/05/25 12:42:30;;;;;;;2.05;0.88;;;21.00;57.60;;;;;;4529702;31;20214;-62
2022/05/25 12:50:57;;;;;;;2.90;0.65;;;21.10;57.10;;;;;;4516700;31;20135;-62
2022/05/25 12:53:39;;;;;;;1.98;0.60;;;21.10;56.70;;;;;;4513184;31;20136;-63
2022/05/25 12:56:15;;;;;;;1.65;0.70;;;21.10;56.60;;;;;;4529465;31;20114;-64
2022/05/25 12:58:54;;;;;;;1.45;0.50;;;21.10;56.60;;;;;;4528763;31;20217;-62
2022/05/25 13:01:26;;;;;;;3.15;0.70;;;21.10;56.10;;;;;;4531197;31;20732;-62
2022/05/25 13:03:55;;;;;;;2.15;0.70;;;21.10;56.10;;;;;;4515069;31;20091;-63
2022/05/25 13:06:24;;;;;;;3.15;0.80;;;21.10;55.90;;;;;;4528929;31;20147;-63
2022/05/25 13:08:49;;;;;;;2.42;0.80;;;21.10;56.00;;;;;;4532251;31;20199;-61
2022/05/25 13:11:30;;;;;;;0.90;0.30;;;21.10;55.90;;;;;;4528717;31;20130;-61
2022/05/25 13:13:58;;;;;;;1.25;0.30;;;21.20;55.70;;;;;;4530244;31;20136;-62
2022/05/25 13:16:42;;;;;;;1.65;0.65;;;21.20;55.60;;;;;;4529252;31;20177;-62
2022/05/25 13:19:34;;;;;;;2.08;0.73;;;21.20;55.40;;;;;;4528634;31;20131;-62
2022/05/25 13:22:14;;;;;;;2.67;0.45;;;21.10;55.50;;;;;;4530595;31;20240;-62
2022/05/25 13:25:04;;;;;;;3.22;0.55;;;21.20;55.40;;;;;;4528977;31;20282;-61
2022/05/25 13:28:09;;;;;;;1.65;0.40;;;21.20;55.40;;;;;;4532912;31;20143;-62
2022/05/25 13:30:38;;;;;;;4.50;0.50;;;21.20;55.40;;;;;;4522074;31;20138;-62
2022/05/25 13:33:19;;;;;;;2.63;0.70;;;21.20;55.30;;;;;;4531475;31;20140;-62
2022/05/25 13:36:24;;;;;;;4.93;0.50;;;21.20;55.20;;;;;;4533007;31;20718;-62
2022/05/25 13:39:07;;;;;;;3.00;0.30;;;21.20;55.20;;;;;;4533036;31;20151;-61
2022/05/25 13:41:45;;;;;;;4.82;0.60;;;21.20;55.00;;;;;;4531959;31;20145;-61
2022/05/25 13:44:22;;;;;;;1.60;0.60;;;21.20;54.80;;;;;;4533254;31;20228;-62